sensor_id;sensor_type;location;lat;lon;timestamp;pressure;altitude;pressure_sealevel;temperature;humidity
15050;BME280;7622;42.724;23.250;2022-11-06T00:00:44;94231.66;;;12.11;100.00
15050;BME280;7622;42.724;23.250;2022-11-06T00:03:11;94234.63;;;12.16;100.00
15050;BME280;7622;42.724;23.250;2022-11-06T00:05:42;94234.44;;;12.18;100.00
15050;BME280;7622;42.724;23.250;2022-11-06T00:08:28;94227.44;;;12.27;100.00
15050;BME280;7622;42.724;23.250;2022-11-06T00:10:56;94230.50;;;12.38;100.00
15050;BME280;7622;42.724;23.250;2022-11-06T00:13:23;94226.09;;;12.39;100.00
15050;BME280;7622;42.724;23.250;2022-11-06T00:15:50;94231.63;;;12.52;100.00
15050;BME280;7622;42.724;23.250;2022-11-06T00:18:17;94226.09;;;12.39;100.00
15050;BME280;7622;42.724;23.250;2022-11-06T00:20:45;94226.09;;;12.39;100.00
15050;BME280;7622;42.724;23.250;2022-11-06T00:23:12;94236.22;;;12.42;100.00
15050;BME280;7622;42.724;23.250;2022-11-06T00:25:40;94226.78;;;12.33;100.00
15050;BME280;7622;42.724;23.250;2022-11-06T00:28:07;94216.03;;;12.36;100.00
15050;BME280;7622;42.724;23.250;2022-11-06T00:30:34;94208.22;;;12.11;100.00
15050;BME280;7622;42.724;23.250;2022-11-06T00:33:01;94214.09;;;12.21;100.00
15050;BME280;7622;42.724;23.250;2022-11-06T00:35:27;94193.63;;;12.02;100.00
15050;BME280;7622;42.724;23.250;2022-11-06T00:37:56;94223.84;;;12.28;100.00
15050;BME280;7622;42.724;23.250;2022-11-06T00:40:22;94233.97;;;12.14;100.00
15050;BME280;7622;42.724;23.250;2022-11-06T00:42:53;94224.03;;;12.02;100.00
15050;BME280;7622;42.724;23.250;2022-11-06T00:45:20;94234.63;;;12.08;100.00
15050;BME280;7622;42.724;23.250;2022-11-06T00:47:47;94237.34;;;11.91;100.00
15050;BME280;7622;42.724;23.250;2022-11-06T00:50:14;94234.28;;;11.95;100.00
15050;BME280;7622;42.724;23.250;2022-11-06T00:52:42;94213.94;;;11.82;100.00
15050;BME280;7622;42.724;23.250;2022-11-06T00:55:10;94225.34;;;11.81;100.00
15050;BME280;7622;42.724;23.250;2022-11-06T00:57:37;94213.75;;;11.76;100.00
15050;BME280;7622;42.724;23.250;2022-11-06T01:00:04;94215.03;;;11.64;100.00
15050;BME280;7622;42.724;23.250;2022-11-06T01:02:32;94214.38;;;11.70;100.00
15050;BME280;7622;42.724;23.250;2022-11-06T01:04:58;94209.56;;;11.75;100.00
15050;BME280;7622;42.724;23.250;2022-11-06T01:07:25;94206.94;;;11.91;100.00
15050;BME280;7622;42.724;23.250;2022-11-06T01:09:52;94223.53;;;11.90;100.00
15050;BME280;7622;42.724;23.250;2022-11-06T01:12:20;94199.63;;;11.78;100.00
15050;BME280;7622;42.724;23.250;2022-11-06T01:14:47;94221.28;;;11.95;100.00
15050;BME280;7622;42.724;23.250;2022-11-06T01:17:14;94214.09;;;11.97;100.00
15050;BME280;7622;42.724;23.250;2022-11-06T01:19:41;94192.63;;;11.79;100.00
15050;BME280;7622;42.724;23.250;2022-11-06T01:22:07;94217.50;;;11.90;100.00
15050;BME280;7622;42.724;23.250;2022-11-06T01:24:34;94212.16;;;11.91;100.00
15050;BME280;7622;42.724;23.250;2022-11-06T01:27:02;94201.03;;;11.65;100.00
15050;BME280;7622;42.724;23.250;2022-11-06T01:29:30;94198.13;;;11.68;100.00
15050;BME280;7622;42.724;23.250;2022-11-06T01:31:57;94194.03;;;11.57;100.00
15050;BME280;7622;42.724;23.250;2022-11-06T01:34:24;94201.03;;;11.40;100.00
15050;BME280;7622;42.724;23.250;2022-11-06T01:36:50;94193.88;;;11.59;100.00
15050;BME280;7622;42.724;23.250;2022-11-06T01:39:18;94202.34;;;11.69;100.00
15050;BME280;7622;42.724;23.250;2022-11-06T01:41:47;94207.22;;;11.72;100.00
15050;BME280;7622;42.724;23.250;2022-11-06T01:47:23;94202.84;;;11.72;100.00
15050;BME280;7622;42.724;23.250;2022-11-06T01:49:52;94208.84;;;11.57;100.00
15050;BME280;7622;42.724;23.250;2022-11-06T01:52:21;94200.88;;;11.58;100.00
15050;BME280;7622;42.724;23.250;2022-11-06T01:54:52;94197.28;;;11.43;100.00
15050;BME280;7622;42.724;23.250;2022-11-06T01:57:20;94205.06;;;11.35;100.00
15050;BME280;7622;42.724;23.250;2022-11-06T01:59:49;94196.13;;;11.37;100.00
15050;BME280;7622;42.724;23.250;2022-11-06T02:02:17;94192.56;;;11.38;100.00
15050;BME280;7622;42.724;23.250;2022-11-06T02:04:47;94198.69;;;11.21;100.00
15050;BME280;7622;42.724;23.250;2022-11-06T02:07:14;94183.09;;;11.21;100.00
15050;BME280;7622;42.724;23.250;2022-11-06T02:09:42;94190.69;;;11.06;100.00
15050;BME280;7622;42.724;23.250;2022-11-06T02:12:14;94192.84;;;11.27;100.00
15050;BME280;7622;42.724;23.250;2022-11-06T02:14:49;94194.16;;;11.31;100.00
15050;BME280;7622;42.724;23.250;2022-11-06T02:17:28;94189.44;;;11.35;100.00
15050;BME280;7622;42.724;23.250;2022-11-06T02:20:06;94186.03;;;11.26;100.00
15050;BME280;7622;42.724;23.250;2022-11-06T02:25:42;94179.94;;;11.68;100.00
15050;BME280;7622;42.724;23.250;2022-11-06T02:28:19;94181.41;;;11.95;100.00
15050;BME280;7622;42.724;23.250;2022-11-06T02:30:48;94173.41;;;12.12;100.00
15050;BME280;7622;42.724;23.250;2022-11-06T02:33:21;94174.06;;;12.14;100.00
15050;BME280;7622;42.724;23.250;2022-11-06T02:35:52;94182.53;;;12.16;100.00
15050;BME280;7622;42.724;23.250;2022-11-06T02:38:25;94184.34;;;12.08;100.00
15050;BME280;7622;42.724;23.250;2022-11-06T02:40:56;94189.69;;;12.06;100.00
15050;BME280;7622;42.724;23.250;2022-11-06T02:43:29;94180.25;;;12.13;100.00
15050;BME280;7622;42.724;23.250;2022-11-06T02:46:01;94193.75;;;12.25;100.00
15050;BME280;7622;42.724;23.250;2022-11-06T02:48:36;94186.56;;;12.35;100.00
15050;BME280;7622;42.724;23.250;2022-11-06T02:51:04;94195.19;;;12.36;100.00
15050;BME280;7622;42.724;23.250;2022-11-06T02:53:36;94195.19;;;12.36;100.00
15050;BME280;7622;42.724;23.250;2022-11-06T02:56:07;94201.03;;;12.46;100.00
15050;BME280;7622;42.724;23.250;2022-11-06T02:58:40;94201.03;;;12.46;100.00
15050;BME280;7622;42.724;23.250;2022-11-06T03:01:15;94199.25;;;12.38;100.00
15050;BME280;7622;42.724;23.250;2022-11-06T03:03:49;94208.50;;;12.57;100.00
15050;BME280;7622;42.724;23.250;2022-11-06T03:06:21;94209.50;;;12.56;100.00
15050;BME280;7622;42.724;23.250;2022-11-06T03:08:52;94199.06;;;12.48;100.00
15050;BME280;7622;42.724;23.250;2022-11-06T03:11:22;94199.06;;;12.56;100.00
15050;BME280;7622;42.724;23.250;2022-11-06T03:13:55;94215.81;;;12.61;100.00
15050;BME280;7622;42.724;23.250;2022-11-06T03:16:28;94210.94;;;12.58;100.00
15050;BME280;7622;42.724;23.250;2022-11-06T03:19:04;94218.28;;;12.47;100.00
15050;BME280;7622;42.724;23.250;2022-11-06T03:21:37;94226.75;;;12.49;100.00
15050;BME280;7622;42.724;23.250;2022-11-06T03:24:12;94210.84;;;12.36;100.00
15050;BME280;7622;42.724;23.250;2022-11-06T03:26:44;94232.13;;;12.39;100.00
15050;BME280;7622;42.724;23.250;2022-11-06T03:29:17;94222.38;;;12.49;100.00
15050;BME280;7622;42.724;23.250;2022-11-06T03:31:49;94227.06;;;12.54;100.00
15050;BME280;7622;42.724;23.250;2022-11-06T03:34:25;94147.09;;;11.83;100.00
15050;BME280;7622;42.724;23.250;2022-11-06T03:36:58;94229.53;;;12.31;100.00
15050;BME280;7622;42.724;23.250;2022-11-06T03:39:31;94236.72;;;12.29;100.00
15050;BME280;7622;42.724;23.250;2022-11-06T03:42:03;94237.69;;;12.36;100.00
15050;BME280;7622;42.724;23.250;2022-11-06T03:44:37;94250.56;;;12.30;100.00
15050;BME280;7622;42.724;23.250;2022-11-06T03:47:08;94244.53;;;12.21;100.00
15050;BME280;7622;42.724;23.250;2022-11-06T03:49:41;94234.28;;;12.28;100.00
15050;BME280;7622;42.724;23.250;2022-11-06T03:52:13;94228.09;;;12.20;100.00
15050;BME280;7622;42.724;23.250;2022-11-06T03:54:44;94228.09;;;12.20;100.00
15050;BME280;7622;42.724;23.250;2022-11-06T03:57:17;94225.13;;;12.32;100.00
15050;BME280;7622;42.724;23.250;2022-11-06T03:59:50;94221.59;;;12.16;100.00
15050;BME280;7622;42.724;23.250;2022-11-06T04:02:20;94235.59;;;12.23;100.00
15050;BME280;7622;42.724;23.250;2022-11-06T04:04:50;94236.88;;;12.19;100.00
15050;BME280;7622;42.724;23.250;2022-11-06T04:07:22;94233.81;;;12.08;100.00
15050;BME280;7622;42.724;23.250;2022-11-06T04:09:55;94228.91;;;11.97;100.00
15050;BME280;7622;42.724;23.250;2022-11-06T04:12:43;94235.75;;;12.06;100.00
15050;BME280;7622;42.724;23.250;2022-11-06T04:15:33;94242.09;;;11.95;100.00
15050;BME280;7622;42.724;23.250;2022-11-06T04:18:02;94243.06;;;11.94;100.00
15050;BME280;7622;42.724;23.250;2022-11-06T04:20:36;94240.16;;;11.89;100.00
15050;BME280;7622;42.724;23.250;2022-11-06T04:23:33;94233.94;;;11.98;100.00
15050;BME280;7622;42.724;23.250;2022-11-06T04:26:07;94237.06;;;12.02;100.00
15050;BME280;7622;42.724;23.250;2022-11-06T04:29:01;94228.56;;;11.92;100.00
15050;BME280;7622;42.724;23.250;2022-11-06T04:31:35;94233.13;;;11.98;100.00
15050;BME280;7622;42.724;23.250;2022-11-06T04:34:07;94229.25;;;12.02;100.00
15050;BME280;7622;42.724;23.250;2022-11-06T04:36:42;94230.69;;;12.04;100.00
15050;BME280;7622;42.724;23.250;2022-11-06T04:39:17;94245.34;;;12.05;100.00
15050;BME280;7622;42.724;23.250;2022-11-06T04:41:54;94243.56;;;12.06;100.00
15050;BME280;7622;42.724;23.250;2022-11-06T04:44:25;94237.38;;;12.07;100.00
15050;BME280;7622;42.724;23.250;2022-11-06T04:46:58;94232.97;;;12.07;100.00
15050;BME280;7622;42.724;23.250;2022-11-06T04:49:29;94245.03;;;12.08;100.00
15050;BME280;7622;42.724;23.250;2022-11-06T04:51:57;94250.22;;;12.08;100.00
15050;BME280;7622;42.724;23.250;2022-11-06T04:54:24;94233.28;;;12.04;100.00
15050;BME280;7622;42.724;23.250;2022-11-06T04:56:56;94247.47;;;12.10;100.00
15050;BME280;7622;42.724;23.250;2022-11-06T04:59:24;94251.53;;;12.12;100.00
15050;BME280;7622;42.724;23.250;2022-11-06T05:01:51;94252.84;;;12.16;100.00
15050;BME280;7622;42.724;23.250;2022-11-06T05:04:20;94266.16;;;12.13;100.00
15050;BME280;7622;42.724;23.250;2022-11-06T05:06:47;94266.50;;;12.18;100.00
15050;BME280;7622;42.724;23.250;2022-11-06T05:09:13;94272.19;;;12.06;100.00
15050;BME280;7622;42.724;23.250;2022-11-06T05:11:40;94272.69;;;12.09;100.00
15050;BME280;7622;42.724;23.250;2022-11-06T05:14:07;94291.22;;;12.14;100.00
15050;BME280;7622;42.724;23.250;2022-11-06T05:16:34;94282.59;;;12.14;100.00
15050;BME280;7622;42.724;23.250;2022-11-06T05:19:01;94266.66;;;12.17;100.00
15050;BME280;7622;42.724;23.250;2022-11-06T05:21:29;94274.31;;;12.18;100.00
15050;BME280;7622;42.724;23.250;2022-11-06T05:24:13;94273.84;;;12.23;100.00
15050;BME280;7622;42.724;23.250;2022-11-06T05:26:40;94278.22;;;12.22;100.00
15050;BME280;7622;42.724;23.250;2022-11-06T05:29:07;94294.81;;;12.21;100.00
15050;BME280;7622;42.724;23.250;2022-11-06T05:31:34;94284.56;;;12.12;100.00
15050;BME280;7622;42.724;23.250;2022-11-06T05:34:01;94293.84;;;12.22;100.00
15050;BME280;7622;42.724;23.250;2022-11-06T05:36:29;94297.41;;;12.21;100.00
15050;BME280;7622;42.724;23.250;2022-11-06T05:38:56;94291.91;;;12.16;100.00
15050;BME280;7622;42.724;23.250;2022-11-06T05:41:22;94278.72;;;12.10;100.00
15050;BME280;7622;42.724;23.250;2022-11-06T05:43:49;94297.28;;;12.23;100.00
15050;BME280;7622;42.724;23.250;2022-11-06T05:46:16;94293.84;;;12.22;100.00
15050;BME280;7622;42.724;23.250;2022-11-06T05:48:43;94293.34;;;12.27;100.00
15050;BME280;7622;42.724;23.250;2022-11-06T05:51:10;94299.88;;;12.23;100.00
15050;BME280;7622;42.724;23.250;2022-11-06T05:53:38;94313.22;;;12.28;100.00
15050;BME280;7622;42.724;23.250;2022-11-06T05:56:06;94321.84;;;12.37;100.00
15050;BME280;7622;42.724;23.250;2022-11-06T05:58:33;94308.81;;;12.29;100.00
15050;BME280;7622;42.724;23.250;2022-11-06T06:01:00;94331.94;;;12.40;100.00
15050;BME280;7622;42.724;23.250;2022-11-06T06:03:27;94321.19;;;12.43;100.00
15050;BME280;7622;42.724;23.250;2022-11-06T06:05:54;94326.72;;;12.48;100.00
15050;BME280;7622;42.724;23.250;2022-11-06T06:08:20;94332.25;;;12.53;100.00
15050;BME280;7622;42.724;23.250;2022-11-06T06:10:49;94332.59;;;12.50;100.00
15050;BME280;7622;42.724;23.250;2022-11-06T06:13:15;94337.63;;;12.59;100.00
15050;BME280;7622;42.724;23.250;2022-11-06T06:15:42;94342.50;;;12.62;100.00
15050;BME280;7622;42.724;23.250;2022-11-06T06:18:10;94349.00;;;12.67;100.00
15050;BME280;7622;42.724;23.250;2022-11-06T06:20:37;94342.69;;;12.69;100.00
15050;BME280;7622;42.724;23.250;2022-11-06T06:23:05;94350.16;;;12.80;100.00
15050;BME280;7622;42.724;23.250;2022-11-06T06:25:32;94340.53;;;12.73;100.00
15050;BME280;7622;42.724;23.250;2022-11-06T06:28:00;94336.97;;;12.82;100.00
15050;BME280;7622;42.724;23.250;2022-11-06T06:30:27;94349.31;;;12.96;100.00
15050;BME280;7622;42.724;23.250;2022-11-06T06:32:54;94357.66;;;12.91;100.00
15050;BME280;7622;42.724;23.250;2022-11-06T06:35:20;94356.00;;;12.90;100.00
15050;BME280;7622;42.724;23.250;2022-11-06T06:37:51;94361.22;;;12.82;100.00
15050;BME280;7622;42.724;23.250;2022-11-06T06:40:19;94357.16;;;12.88;100.00
15050;BME280;7622;42.724;23.250;2022-11-06T06:42:46;94369.03;;;12.98;100.00
15050;BME280;7622;42.724;23.250;2022-11-06T06:45:15;94355.50;;;12.87;100.00
15050;BME280;7622;42.724;23.250;2022-11-06T06:47:42;94365.28;;;13.01;100.00
15050;BME280;7622;42.724;23.250;2022-11-06T06:50:09;94369.84;;;13.15;100.00
15050;BME280;7622;42.724;23.250;2022-11-06T06:52:35;94363.63;;;13.24;100.00
15050;BME280;7622;42.724;23.250;2022-11-06T06:55:03;94377.66;;;13.23;100.00
15050;BME280;7622;42.724;23.250;2022-11-06T06:57:30;94370.66;;;13.24;100.00
15050;BME280;7622;42.724;23.250;2022-11-06T06:59:56;94381.56;;;13.27;100.00
15050;BME280;7622;42.724;23.250;2022-11-06T07:02:25;94376.84;;;13.23;100.00
15050;BME280;7622;42.724;23.250;2022-11-06T07:04:51;94371.31;;;13.26;100.00
15050;BME280;7622;42.724;23.250;2022-11-06T07:07:18;94378.63;;;13.30;100.00
15050;BME280;7622;42.724;23.250;2022-11-06T07:09:45;94386.59;;;13.29;100.00
15050;BME280;7622;42.724;23.250;2022-11-06T07:12:12;94384.97;;;13.36;100.00
15050;BME280;7622;42.724;23.250;2022-11-06T07:14:38;94396.06;;;13.38;100.00
15050;BME280;7622;42.724;23.250;2022-11-06T07:17:06;94384.44;;;13.49;100.00
15050;BME280;7622;42.724;23.250;2022-11-06T07:19:34;94377.66;;;13.31;100.00
15050;BME280;7622;42.724;23.250;2022-11-06T07:22:01;94398.78;;;13.53;100.00
15050;BME280;7622;42.724;23.250;2022-11-06T07:24:27;94371.94;;;13.28;100.00
15050;BME280;7622;42.724;23.250;2022-11-06T07:26:54;94371.59;;;13.39;100.00
15050;BME280;7622;42.724;23.250;2022-11-06T07:29:21;94385.63;;;13.30;100.00
15050;BME280;7622;42.724;23.250;2022-11-06T07:31:48;94397.34;;;13.42;100.00
15050;BME280;7622;42.724;23.250;2022-11-06T07:34:15;94372.09;;;13.34;100.00
15050;BME280;7622;42.724;23.250;2022-11-06T07:36:43;94400.09;;;13.49;100.00
15050;BME280;7622;42.724;23.250;2022-11-06T07:39:10;94387.22;;;13.47;100.00
15050;BME280;7622;42.724;23.250;2022-11-06T07:41:37;94405.47;;;13.55;100.00
15050;BME280;7622;42.724;23.250;2022-11-06T07:44:04;94406.84;;;13.82;100.00
15050;BME280;7622;42.724;23.250;2022-11-06T07:46:30;94408.78;;;13.88;100.00
15050;BME280;7622;42.724;23.250;2022-11-06T07:48:57;94408.91;;;13.95;100.00
15050;BME280;7622;42.724;23.250;2022-11-06T07:51:24;94404.53;;;13.87;100.00
15050;BME280;7622;42.724;23.250;2022-11-06T07:53:52;94400.78;;;13.90;100.00
15050;BME280;7622;42.724;23.250;2022-11-06T07:56:19;94402.88;;;13.94;100.00
15050;BME280;7622;42.724;23.250;2022-11-06T07:58:46;94401.03;;;14.03;100.00
15050;BME280;7622;42.724;23.250;2022-11-06T08:01:14;94420.31;;;14.02;100.00
15050;BME280;7622;42.724;23.250;2022-11-06T08:03:42;94405.84;;;13.83;100.00
15050;BME280;7622;42.724;23.250;2022-11-06T08:06:09;94424.22;;;13.98;100.00
15050;BME280;7622;42.724;23.250;2022-11-06T08:08:36;94424.81;;;14.16;100.00
15050;BME280;7622;42.724;23.250;2022-11-06T08:11:06;94394.66;;;14.05;100.00
15050;BME280;7622;42.724;23.250;2022-11-06T08:13:34;94420.69;;;14.22;100.00
15050;BME280;7622;42.724;23.250;2022-11-06T08:16:05;94408.22;;;14.01;100.00
15050;BME280;7622;42.724;23.250;2022-11-06T08:18:32;94433.34;;;14.10;100.00
15050;BME280;7622;42.724;23.250;2022-11-06T08:20:59;94447.50;;;14.15;100.00
15050;BME280;7622;42.724;23.250;2022-11-06T08:23:26;94418.66;;;14.09;100.00
15050;BME280;7622;42.724;23.250;2022-11-06T08:25:54;94435.31;;;14.00;100.00
15050;BME280;7622;42.724;23.250;2022-11-06T08:28:23;94442.44;;;14.14;100.00
15050;BME280;7622;42.724;23.250;2022-11-06T08:30:50;94436.38;;;14.22;100.00
15050;BME280;7622;42.724;23.250;2022-11-06T08:33:18;94438.44;;;14.34;100.00
15050;BME280;7622;42.724;23.250;2022-11-06T08:35:45;94409.88;;;14.02;100.00
15050;BME280;7622;42.724;23.250;2022-11-06T08:38:12;94443.41;;;14.21;100.00
15050;BME280;7622;42.724;23.250;2022-11-06T08:40:39;94439.16;;;14.20;100.00
15050;BME280;7622;42.724;23.250;2022-11-06T08:43:07;94457.44;;;14.20;100.00
15050;BME280;7622;42.724;23.250;2022-11-06T08:45:37;94457.59;;;14.18;100.00
15050;BME280;7622;42.724;23.250;2022-11-06T08:48:05;94458.41;;;14.19;100.00
15050;BME280;7622;42.724;23.250;2022-11-06T08:50:33;94454.88;;;14.04;100.00
15050;BME280;7622;42.724;23.250;2022-11-06T08:53:00;94458.50;;;14.03;100.00
15050;BME280;7622;42.724;23.250;2022-11-06T08:55:28;94462.41;;;13.99;100.00
15050;BME280;7622;42.724;23.250;2022-11-06T08:57:55;94468.31;;;13.93;100.00
15050;BME280;7622;42.724;23.250;2022-11-06T09:00:23;94468.97;;;13.95;100.00
15050;BME280;7622;42.724;23.250;2022-11-06T09:02:57;94481.06;;;13.88;100.00
15050;BME280;7622;42.724;23.250;2022-11-06T09:05:25;94467.25;;;13.71;100.00
15050;BME280;7622;42.724;23.250;2022-11-06T09:07:56;94471.31;;;13.73;100.00
15050;BME280;7622;42.724;23.250;2022-11-06T09:10:26;94481.72;;;13.90;100.00
15050;BME280;7622;42.724;23.250;2022-11-06T09:12:53;94477.13;;;13.92;100.00
15050;BME280;7622;42.724;23.250;2022-11-06T09:15:20;94475.03;;;13.87;100.00
15050;BME280;7622;42.724;23.250;2022-11-06T09:17:48;94468.81;;;13.96;100.00
15050;BME280;7622;42.724;23.250;2022-11-06T09:20:18;94476.44;;;13.98;100.00
15050;BME280;7622;42.724;23.250;2022-11-06T09:22:46;94472.50;;;14.10;100.00
15050;BME280;7622;42.724;23.250;2022-11-06T09:25:13;94474.44;;;14.16;100.00
15050;BME280;7622;42.724;23.250;2022-11-06T09:27:42;94463.34;;;14.14;100.00
15050;BME280;7622;42.724;23.250;2022-11-06T09:30:11;94479.94;;;14.29;100.00
15050;BME280;7622;42.724;23.250;2022-11-06T09:32:44;94474.72;;;14.29;100.00
15050;BME280;7622;42.724;23.250;2022-11-06T09:35:11;94485.16;;;14.29;100.00
15050;BME280;7622;42.724;23.250;2022-11-06T09:37:39;94486.78;;;14.30;100.00
15050;BME280;7622;42.724;23.250;2022-11-06T09:40:08;94480.75;;;14.30;100.00
15050;BME280;7622;42.724;23.250;2022-11-06T09:42:50;94491.88;;;14.24;100.00
15050;BME280;7622;42.724;23.250;2022-11-06T09:45:22;94493.22;;;14.11;100.00
15050;BME280;7622;42.724;23.250;2022-11-06T09:47:53;94492.41;;;14.11;100.00
15050;BME280;7622;42.724;23.250;2022-11-06T09:50:26;94477.94;;;14.00;100.00
15050;BME280;7622;42.724;23.250;2022-11-06T09:52:58;94468.81;;;13.96;100.00
15050;BME280;7622;42.724;23.250;2022-11-06T09:55:32;94487.72;;;13.98;100.00
15050;BME280;7622;42.724;23.250;2022-11-06T09:58:02;94489.50;;;14.06;100.00
15050;BME280;7622;42.724;23.250;2022-11-06T10:00:31;94480.41;;;13.94;100.00
15050;BME280;7622;42.724;23.250;2022-11-06T10:03:02;94495.63;;;13.82;100.00
15050;BME280;7622;42.724;23.250;2022-11-06T10:05:31;94475.84;;;13.96;100.00
15050;BME280;7622;42.724;23.250;2022-11-06T10:08:02;94484.00;;;13.93;100.00
15050;BME280;7622;42.724;23.250;2022-11-06T10:10:35;94475.50;;;13.91;100.00
15050;BME280;7622;42.724;23.250;2022-11-06T10:13:25;94473.25;;;13.79;100.00
15050;BME280;7622;42.724;23.250;2022-11-06T10:16:02;94473.56;;;13.85;100.00
15050;BME280;7622;42.724;23.250;2022-11-06T10:18:40;94482.34;;;13.92;100.00
15050;BME280;7622;42.724;23.250;2022-11-06T10:21:11;94476.16;;;13.93;100.00
15050;BME280;7622;42.724;23.250;2022-11-06T10:23:47;94485.91;;;13.99;100.00
15050;BME280;7622;42.724;23.250;2022-11-06T10:26:17;94485.88;;;14.15;100.00
15050;BME280;7622;42.724;23.250;2022-11-06T10:29:07;94486.88;;;14.06;100.00
15050;BME280;7622;42.724;23.250;2022-11-06T10:31:45;94487.50;;;14.16;100.00
15050;BME280;7622;42.724;23.250;2022-11-06T10:34:20;94463.75;;;13.95;100.00
15050;BME280;7622;42.724;23.250;2022-11-06T10:36:51;94481.81;;;14.04;100.00
15050;BME280;7622;42.724;23.250;2022-11-06T10:39:22;94481.69;;;13.98;100.00
15050;BME280;7622;42.724;23.250;2022-11-06T10:41:54;94483.16;;;13.92;100.00
15050;BME280;7622;42.724;23.250;2022-11-06T10:44:27;94469.41;;;14.06;100.00
15050;BME280;7622;42.724;23.250;2022-11-06T10:47:00;94471.84;;;14.08;100.00
15050;BME280;7622;42.724;23.250;2022-11-06T10:49:35;94475.03;;;14.26;100.00
15050;BME280;7622;42.724;23.250;2022-11-06T10:52:32;94474.09;;;14.19;100.00
15050;BME280;7622;42.724;23.250;2022-11-06T10:57:54;94479.47;;;14.17;100.00
15050;BME280;7622;42.724;23.250;2022-11-06T11:00:22;94461.19;;;14.17;100.00
15050;BME280;7622;42.724;23.250;2022-11-06T11:02:51;94481.09;;;14.27;100.00
15050;BME280;7622;42.724;23.250;2022-11-06T11:05:20;94480.63;;;14.23;100.00
15050;BME280;7622;42.724;23.250;2022-11-06T11:07:49;94487.81;;;14.21;100.00
15050;BME280;7622;42.724;23.250;2022-11-06T11:10:28;94482.63;;;14.05;100.00
15050;BME280;7622;42.724;23.250;2022-11-06T11:12:57;94490.69;;;13.95;100.00
15050;BME280;7622;42.724;23.250;2022-11-06T11:15:26;94483.38;;;13.83;100.00
15050;BME280;7622;42.724;23.250;2022-11-06T11:18:11;94489.88;;;13.87;100.00
15050;BME280;7622;42.724;23.250;2022-11-06T11:20:42;94481.53;;;13.91;100.00
15050;BME280;7622;42.724;23.250;2022-11-06T11:23:15;94475.84;;;13.88;100.00
15050;BME280;7622;42.724;23.250;2022-11-06T11:25:44;94437.78;;;13.46;100.00
15050;BME280;7622;42.724;23.250;2022-11-06T11:28:21;94474.91;;;13.72;100.00
15050;BME280;7622;42.724;23.250;2022-11-06T11:30:52;94475.41;;;13.68;100.00
15050;BME280;7622;42.724;23.250;2022-11-06T11:33:23;94483.06;;;13.69;100.00
15050;BME280;7622;42.724;23.250;2022-11-06T11:35:52;94471.34;;;13.57;100.00
15050;BME280;7622;42.724;23.250;2022-11-06T11:38:19;94480.00;;;13.58;100.00
15050;BME280;7622;42.724;23.250;2022-11-06T11:40:48;94474.44;;;13.61;100.00
15050;BME280;7622;42.724;23.250;2022-11-06T11:43:24;94481.09;;;13.71;100.00
15050;BME280;7622;42.724;23.250;2022-11-06T11:46:14;94482.44;;;13.59;100.00
15050;BME280;7622;42.724;23.250;2022-11-06T11:48:44;94434.69;;;13.43;100.00
15050;BME280;7622;42.724;23.250;2022-11-06T11:51:23;94468.06;;;13.63;100.00
15050;BME280;7622;42.724;23.250;2022-11-06T11:53:51;94462.22;;;13.61;100.00
15050;BME280;7622;42.724;23.250;2022-11-06T11:56:21;94485.84;;;13.68;100.00
15050;BME280;7622;42.724;23.250;2022-11-06T11:58:49;94450.03;;;13.37;100.00
15050;BME280;7622;42.724;23.250;2022-11-06T12:01:18;94468.06;;;13.63;100.00
15050;BME280;7622;42.724;23.250;2022-11-06T12:03:47;94462.19;;;13.69;100.00
15050;BME280;7622;42.724;23.250;2022-11-06T12:06:17;94467.75;;;13.66;100.00
15050;BME280;7622;42.724;23.250;2022-11-06T12:08:47;94470.66;;;13.71;100.00
15050;BME280;7622;42.724;23.250;2022-11-06T12:11:21;94474.25;;;13.70;100.00
15050;BME280;7622;42.724;23.250;2022-11-06T12:17:03;94470.88;;;13.62;100.00
15050;BME280;7622;42.724;23.250;2022-11-06T12:19:33;94461.03;;;13.72;100.00
15050;BME280;7622;42.724;23.250;2022-11-06T12:22:05;94461.69;;;13.74;100.00
15050;BME280;7622;42.724;23.250;2022-11-06T12:24:38;94460.84;;;13.82;100.00
15050;BME280;7622;42.724;23.250;2022-11-06T12:27:13;94469.81;;;13.79;100.00
15050;BME280;7622;42.724;23.250;2022-11-06T12:29:45;94456.16;;;13.69;100.00
15050;BME280;7622;42.724;23.250;2022-11-06T12:32:20;94472.94;;;13.83;100.00
15050;BME280;7622;42.724;23.250;2022-11-06T12:34:52;94473.91;;;13.90;100.00
15050;BME280;7622;42.724;23.250;2022-11-06T12:37:27;94469.97;;;13.86;100.00
15050;BME280;7622;42.724;23.250;2022-11-06T12:40:00;94488.09;;;13.79;100.00
15050;BME280;7622;42.724;23.250;2022-11-06T12:42:31;94475.56;;;13.66;100.00
15050;BME280;7622;42.724;23.250;2022-11-06T12:45:00;94477.22;;;13.67;100.00
15050;BME280;7622;42.724;23.250;2022-11-06T12:47:36;94483.56;;;13.73;100.00
15050;BME280;7622;42.724;23.250;2022-11-06T12:50:31;94465.25;;;13.81;100.00
15050;BME280;7622;42.724;23.250;2022-11-06T12:53:09;94470.66;;;13.79;100.00
15050;BME280;7622;42.724;23.250;2022-11-06T12:55:47;94451.41;;;13.72;100.00
15050;BME280;7622;42.724;23.250;2022-11-06T12:58:40;94479.41;;;13.95;100.00
15050;BME280;7622;42.724;23.250;2022-11-06T13:01:15;94483.34;;;13.91;100.00
15050;BME280;7622;42.724;23.250;2022-11-06T13:04:02;94481.38;;;13.93;100.00
15050;BME280;7622;42.724;23.250;2022-11-06T13:09:41;94469.97;;;13.86;100.00
15050;BME280;7622;42.724;23.250;2022-11-06T13:12:17;94464.06;;;13.92;100.00
15050;BME280;7622;42.724;23.250;2022-11-06T13:14:57;94477.44;;;13.97;100.00
15050;BME280;7622;42.724;23.250;2022-11-06T13:17:31;94467.84;;;13.89;100.00
15050;BME280;7622;42.724;23.250;2022-11-06T13:20:02;94474.50;;;14.00;100.00
15050;BME280;7622;42.724;23.250;2022-11-06T13:22:36;94484.53;;;14.19;100.00